Rome, OR

5:07 AM MST on December 22, 2014 (GMT -0700)
RAWS GRASSY MOUNTAIN OR US | Change Station
CLOSE
Current Station
Personal Weather Station
Location: Jordan Valley, OR
Elevation: 4560 ft
Nearby Weather Stations

Elev 4560 ft 42.63 °N, 117.40 °W | Updated 43 minutes ago

Overcast
Overcast
40 °F
Feels Like 35 °F
N
8
Wind Variable Wind from North
Gusts 12.0 mph

Today
High -- | Low -- °F
--% Chance of Precip.
Yesterday
High -- | Low -- °F
Precip. -- in
8:17 AM 5:19 PM
New Moon, 0% visible
Pressure 30.12 in
Visibility 0.8 miles
Clouds Mostly Cloudy 300 ft
Overcast 1800 ft
Windchill 35 °F
Dew Point 39 °F
Humidity 98%
Rainfall 0.24 in
Snow Depth Not available.
UV 0 out of 12
Pollen .30 out of 12
Air Quality Not available.
Flu Activity Not available.
METAR KMUO 221158Z AUTO 26007KT 3/4SM R12/4000FT -RA BR BKN003 OVC018 04/04 A3008 RMK AO2 RAE02DZB02E08RAB08E45DZB45E49RAB49 SLP197 P0001 60006 70045 51001

More Conditions Fewer Conditions

Pressure 30.12 in
Visibility 0.8 miles
Clouds Mostly Cloudy 300 ft
Overcast 1800 ft
Windchill 35 °F
Dew Point 39 °F
Humidity 98%
Rainfall 0.24 in
Snow Depth Not available.
UV 0 out of 12
Pollen .30 out of 12
Air Quality Not available.
Flu Activity Not available.
METAR KMUO 221158Z AUTO 26007KT 3/4SM R12/4000FT -RA BR BKN003 OVC018 04/04 A3008 RMK AO2 RAE02DZB02E08RAB08E45DZB45E49RAB49 SLP197 P0001 60006 70045 51001

More Conditions Fewer Conditions

10-Day Weather Forecast

Almanac

Astronomy

Dec. 22, 2014 Rise Set
Actual Time
Civil Twilight
Nautical Twilight
Astronomical Twilight
Moon
Length of Visible Light
Length of Day
Tomorrow will be .
, % of the Moon is Illuminated

Today's Extremes

State Highs State Lows

Community

WunderPhotos

Upload Photos

1,779,592 photos uploaded!

WunderBlogs® & News

Nearby

Air Quality

  Air Quality AQ Index Pollutant
Not available.

Snow Depth

Station Depth Elevation

Earthquake Activity

City Distance Mag. Time & Date
Minimum magnitude displayed is 2.5.

Coastal Water Temperatures

Place Temperature

Nearby Weather Stations